Terminal Aerodrome Forecast
Issued by NWS

Home | Current Version | Previous Version | Text Only | Print | Product List | Glossary On
Versions: 1 2 3 4 5 6 7 8 9 10 11 12 13 14
000
FTUS42 KMLB 030537
TAFTIX
TAF
KTIX 030537Z 0306/0406 17007KT P6SM FEW120 BKN250
     FM031400 21011KT P6SM SCT030 BKN120 OVC250
     FM031700 23013G20KT P6SM VCTS SCT030CB BKN080
      TEMPO 0318/0321 3SM TSRA BKN020CB OVC040
     FM032200 25008KT P6SM SCT040 OVC080
      TEMPO 0322/0324 5SM -SHRA BKN030
     FM040100 21005KT P6SM SCT040 OVC100
      AMD NOT SKED TIL 031200=

USA.gov is the U.S. government's official web portal to all federal, state and local government web resources and services.